Time;durP1;ratioP1;P1;durP2;ratioP2;P2;SDS_P1;SDS_P2;PMS_P1;PMS_P2;Temp;Humidity;BMP_temperature;BMP_pressure;BME280_temperature;BME280_humidity;BME280_pressure;Samples;Min_cycle;Max_cycle;Signal;HPM_P1;HPM_P2
2022/08/05 00:01:19;;;;;;;4.93;1.45;;;23.80;81.90;;;;;;5097798;28;20073;-63
2022/08/05 00:03:45;;;;;;;5.47;1.90;;;23.80;82.00;;;;;;5112510;28;20035;-63
2022/08/05 00:06:17;;;;;;;5.18;1.58;;;23.70;82.10;;;;;;5107567;27;20112;-63
2022/08/05 00:08:43;;;;;;;2.63;1.30;;;23.70;82.20;;;;;;5093597;28;20031;-63
2022/08/05 00:11:13;;;;;;;5.15;1.52;;;23.70;82.30;;;;;;5113379;28;20059;-63
2022/08/05 00:13:41;;;;;;;6.05;1.60;;;23.70;82.50;;;;;;5111049;28;20047;-63
2022/08/05 00:16:11;;;;;;;4.43;2.53;;;23.70;82.60;;;;;;5095324;28;20032;-63
2022/08/05 00:18:37;;;;;;;5.68;1.70;;;23.60;82.60;;;;;;5104528;28;20363;-63
2022/08/05 00:21:05;;;;;;;4.85;1.67;;;23.70;82.80;;;;;;5094949;28;20022;-63
2022/08/05 00:23:30;;;;;;;3.03;1.45;;;23.60;83.00;;;;;;5093092;28;20039;-63
2022/08/05 00:25:56;;;;;;;6.05;1.77;;;23.70;83.10;;;;;;5093416;28;20085;-63
2022/08/05 00:28:22;;;;;;;7.43;1.60;;;23.60;83.10;;;;;;5094797;28;20051;-63
2022/08/05 00:30:47;;;;;;;7.15;1.90;;;23.60;83.10;;;;;;5105920;28;20048;-63
2022/08/05 00:33:15;;;;;;;5.63;1.98;;;23.60;83.10;;;;;;5094264;28;20081;-63
2022/08/05 00:35:41;;;;;;;7.40;2.03;;;23.60;83.10;;;;;;5102092;28;21411;-63
2022/08/05 00:38:07;;;;;;;6.22;1.80;;;23.50;83.00;;;;;;5094082;28;20028;-63
2022/08/05 00:40:33;;;;;;;8.45;2.08;;;23.50;83.00;;;;;;5093164;28;20043;-63
2022/08/05 00:43:00;;;;;;;5.10;1.40;;;23.50;83.10;;;;;;5096109;28;20069;-63
2022/08/05 00:45:27;;;;;;;3.75;1.83;;;23.50;83.20;;;;;;5098101;28;20048;-63
2022/08/05 00:47:53;;;;;;;8.75;2.22;;;23.50;83.30;;;;;;5092291;28;20032;-63
2022/08/05 00:50:18;;;;;;;6.90;1.75;;;23.50;83.50;;;;;;5093036;28;20089;-63
2022/08/05 00:52:44;;;;;;;3.55;1.70;;;23.40;83.60;;;;;;5095968;28;20028;-63
2022/08/05 00:55:11;;;;;;;9.07;1.90;;;23.40;83.70;;;;;;5103580;28;20039;-63
2022/08/05 00:57:37;;;;;;;7.50;1.73;;;23.40;83.70;;;;;;5104368;27;20036;-63
2022/08/05 01:00:04;;;;;;;5.43;1.70;;;23.30;83.60;;;;;;5093957;28;20107;-63
2022/08/05 01:02:30;;;;;;;5.90;1.73;;;23.30;83.60;;;;;;5101286;28;20104;-63
2022/08/05 01:04:55;;;;;;;7.78;1.88;;;23.30;83.60;;;;;;5097029;28;20451;-63
2022/08/05 01:07:21;;;;;;;4.50;1.88;;;23.30;83.60;;;;;;5101736;28;20114;-63
2022/08/05 01:09:46;;;;;;;6.22;1.85;;;23.20;83.50;;;;;;5095978;28;20031;-63
2022/08/05 01:12:15;;;;;;;5.22;1.90;;;23.30;83.60;;;;;;5104233;28;20035;-63
2022/08/05 01:14:47;;;;;;;11.75;2.63;;;23.30;83.60;;;;;;5095852;28;20190;-63
2022/08/05 01:17:24;;;;;;;4.82;1.80;;;23.20;83.60;;;;;;5093341;28;20041;-63
2022/08/05 01:20:08;;;;;;;5.57;1.80;;;23.20;83.60;;;;;;5096992;28;20039;-63
2022/08/05 01:22:56;;;;;;;3.38;1.60;;;23.20;83.60;;;;;;5097734;28;20024;-63
2022/08/05 01:25:43;;;;;;;3.67;1.52;;;23.10;83.50;;;;;;5102762;28;20038;-63
2022/08/05 01:28:15;;;;;;;6.72;1.50;;;23.10;83.50;;;;;;5110898;28;20390;-63
2022/08/05 01:30:50;;;;;;;7.22;2.05;;;23.10;83.70;;;;;;5091064;28;20043;-63
2022/08/05 01:33:20;;;;;;;5.97;1.75;;;23.10;83.70;;;;;;5092278;28;20077;-63
2022/08/05 01:35:47;;;;;;;7.38;1.77;;;23.10;83.70;;;;;;5092502;28;20028;-63
2022/08/05 01:38:14;;;;;;;5.10;1.70;;;23.10;83.80;;;;;;5107603;28;20554;-63
2022/08/05 01:40:40;;;;;;;3.47;1.73;;;23.00;83.60;;;;;;5100795;28;20039;-63
2022/08/05 01:43:06;;;;;;;5.88;2.08;;;23.00;83.50;;;;;;5108180;28;20039;-63
2022/08/05 01:45:33;;;;;;;6.18;1.63;;;23.10;84.40;;;;;;5102084;28;20062;-63
2022/08/05 01:48:02;;;;;;;5.63;1.67;;;23.00;83.90;;;;;;5100618;28;20028;-63
2022/08/05 01:50:31;;;;;;;6.78;1.98;;;23.00;83.90;;;;;;5102726;28;20038;-63
2022/08/05 01:53:10;;;;;;;6.75;1.77;;;23.00;83.90;;;;;;5105087;28;20054;-63
2022/08/05 01:55:38;;;;;;;4.43;1.42;;;23.00;84.30;;;;;;5096317;28;20044;-63
2022/08/05 01:58:06;;;;;;;5.72;1.73;;;23.00;84.40;;;;;;5095104;28;20035;-63
2022/08/05 02:00:36;;;;;;;11.52;1.83;;;23.00;84.50;;;;;;5103175;28;20126;-63
2022/08/05 02:03:24;;;;;;;7.25;1.75;;;23.00;84.60;;;;;;5114860;28;20095;-63
2022/08/05 02:05:52;;;;;;;6.07;1.80;;;22.90;84.50;;;;;;5104691;28;20052;-63
2022/08/05 02:08:18;;;;;;;5.45;1.70;;;23.00;84.50;;;;;;5112469;28;20429;-63
2022/08/05 02:10:51;;;;;;;6.75;1.70;;;22.90;84.50;;;;;;5105438;28;20415;-63
2022/08/05 02:13:26;;;;;;;9.57;2.67;;;22.90;84.60;;;;;;5100055;28;20023;-63
2022/08/05 02:16:01;;;;;;;4.78;1.80;;;22.90;84.60;;;;;;5102607;28;20064;-63
2022/08/05 02:18:40;;;;;;;10.93;2.35;;;22.90;84.60;;;;;;5115961;27;20020;-63
2022/08/05 02:21:12;;;;;;;3.92;1.50;;;22.90;84.50;;;;;;5112353;28;20483;-63
2022/08/05 02:23:41;;;;;;;2.35;1.65;;;22.90;84.60;;;;;;5095387;28;20135;-63
2022/08/05 02:26:10;;;;;;;3.35;1.80;;;22.90;84.50;;;;;;5098364;28;20027;-63
2022/08/05 02:28:40;;;;;;;5.07;1.70;;;22.90;84.50;;;;;;5103609;28;20035;-63
2022/08/05 02:31:21;;;;;;;4.75;1.90;;;22.80;84.40;;;;;;5094372;28;20048;-63
2022/08/05 02:33:58;;;;;;;4.13;2.00;;;22.80;84.40;;;;;;5106560;28;20494;-63
2022/08/05 02:36:26;;;;;;;7.03;1.63;;;22.80;84.40;;;;;;5095944;28;20543;-63
2022/08/05 02:38:55;;;;;;;8.40;1.98;;;22.80;84.40;;;;;;5096042;28;20051;-63
2022/08/05 02:41:23;;;;;;;8.18;2.15;;;22.80;84.20;;;;;;5095164;28;20031;-63
2022/08/05 02:43:50;;;;;;;5.57;1.90;;;22.80;84.40;;;;;;5097278;28;20136;-63
2022/08/05 02:46:19;;;;;;;4.97;1.92;;;22.80;84.40;;;;;;5106501;28;20035;-63
2022/08/05 02:48:45;;;;;;;6.88;1.70;;;22.80;84.50;;;;;;5095176;28;20035;-63
2022/08/05 02:51:14;;;;;;;5.50;1.60;;;22.80;84.40;;;;;;5112209;28;20026;-63
2022/08/05 02:53:40;;;;;;;5.47;1.45;;;22.80;84.40;;;;;;5111182;28;20048;-63
2022/08/05 02:56:10;;;;;;;3.67;1.45;;;22.70;84.30;;;;;;5112462;28;20518;-63
2022/08/05 02:58:39;;;;;;;5.78;1.73;;;22.70;84.50;;;;;;5111399;28;20055;-63
2022/08/05 03:01:06;;;;;;;3.28;1.40;;;22.70;84.50;;;;;;5110952;28;20028;-63
2022/08/05 03:03:34;;;;;;;12.60;2.40;;;22.70;84.40;;;;;;5108158;28;20062;-63
2022/08/05 03:06:00;;;;;;;5.13;1.95;;;22.70;84.70;;;;;;5111129;28;20035;-63
2022/08/05 03:08:26;;;;;;;9.25;2.55;;;22.70;84.90;;;;;;5111304;28;20107;-63
2022/08/05 03:10:52;;;;;;;3.42;1.52;;;22.70;85.10;;;;;;5113138;28;20103;-63
2022/08/05 03:13:18;;;;;;;4.15;1.65;;;22.60;85.10;;;;;;5107167;28;20123;-63
2022/08/05 03:15:45;;;;;;;4.65;1.90;;;22.60;85.20;;;;;;5110703;28;20035;-63
2022/08/05 03:18:11;;;;;;;7.03;1.92;;;22.60;85.30;;;;;;5110101;28;20088;-63
2022/08/05 03:20:37;;;;;;;2.33;1.70;;;22.60;85.60;;;;;;5109963;28;20459;-63
2022/08/05 03:23:05;;;;;;;6.28;1.80;;;22.60;85.70;;;;;;5110749;28;20399;-63
2022/08/05 03:25:32;;;;;;;3.20;1.73;;;22.60;85.80;;;;;;5113800;28;20028;-63
2022/08/05 03:27:59;;;;;;;3.25;1.67;;;22.60;85.90;;;;;;5104120;28;20024;-63
2022/08/05 03:30:27;;;;;;;4.35;2.45;;;22.60;86.10;;;;;;5101201;28;20044;-63
2022/08/05 03:32:53;;;;;;;4.93;1.75;;;22.50;86.20;;;;;;5100533;28;20399;-64
2022/08/05 03:35:20;;;;;;;4.20;1.80;;;22.60;86.30;;;;;;5106026;28;20143;-64
2022/08/05 03:37:45;;;;;;;5.00;1.80;;;22.50;86.40;;;;;;5094862;28;20081;-63
2022/08/05 03:40:11;;;;;;;3.83;2.00;;;22.50;86.50;;;;;;5110134;28;20027;-63
2022/08/05 03:42:39;;;;;;;8.82;3.00;;;22.50;86.50;;;;;;5093972;28;20071;-63
2022/08/05 03:45:06;;;;;;;5.22;1.80;;;22.50;86.60;;;;;;5102551;28;20034;-63
2022/08/05 03:47:32;;;;;;;9.88;2.10;;;22.50;86.70;;;;;;5106468;28;20471;-63
2022/08/05 03:49:57;;;;;;;2.90;1.70;;;22.50;86.70;;;;;;5103348;28;20028;-65
2022/08/05 03:52:32;;;;;;;5.93;2.05;;;22.50;86.70;;;;;;5110027;28;20028;-63
2022/08/05 03:55:23;;;;;;;5.80;1.80;;;22.50;86.70;;;;;;5107367;28;20050;-63
2022/08/05 03:57:54;;;;;;;6.38;2.00;;;22.50;86.50;;;;;;5092753;28;20040;-64
2022/08/05 04:00:25;;;;;;;5.63;1.75;;;22.50;86.50;;;;;;5099460;28;20089;-64
2022/08/05 04:02:53;;;;;;;5.90;3.03;;;22.40;86.40;;;;;;5111447;28;20458;-64
2022/08/05 04:05:20;;;;;;;5.30;1.77;;;22.40;87.10;;;;;;5098155;28;20470;-64
2022/08/05 04:07:46;;;;;;;7.43;2.05;;;22.40;86.50;;;;;;5093627;28;20081;-63
2022/08/05 04:10:12;;;;;;;6.10;2.15;;;22.40;86.50;;;;;;5105552;28;20379;-64
2022/08/05 04:12:38;;;;;;;2.95;1.77;;;22.40;86.50;;;;;;5097473;28;20024;-64
2022/08/05 04:15:04;;;;;;;6.90;1.90;;;22.40;86.20;;;;;;5093854;28;20105;-64
2022/08/05 04:17:33;;;;;;;7.65;2.97;;;22.30;86.20;;;;;;5110268;28;20106;-64
2022/08/05 04:19:59;;;;;;;8.93;2.20;;;22.30;86.30;;;;;;5092670;28;20028;-64
2022/08/05 04:22:24;;;;;;;14.50;2.28;;;22.30;86.30;;;;;;5105983;28;20024;-64
2022/08/05 04:24:50;;;;;;;5.65;2.15;;;22.30;86.30;;;;;;5099458;28;20027;-64
2022/08/05 04:27:16;;;;;;;6.78;2.20;;;22.30;86.40;;;;;;5112832;28;20023;-64
2022/08/05 04:29:41;;;;;;;4.50;2.13;;;22.30;86.50;;;;;;5092924;28;20110;-64
2022/08/05 04:32:11;;;;;;;3.50;2.25;;;22.30;86.50;;;;;;5093082;28;20475;-64
2022/08/05 04:34:37;;;;;;;4.85;2.22;;;22.30;86.50;;;;;;5092792;28;20040;-64
2022/08/05 04:37:03;;;;;;;4.25;2.28;;;22.30;86.40;;;;;;5106833;28;20135;-64
2022/08/05 04:39:29;;;;;;;5.22;2.35;;;22.30;86.50;;;;;;5112623;28;20231;-64
2022/08/05 04:41:55;;;;;;;4.45;2.60;;;22.30;86.60;;;;;;5112710;28;20123;-64
2022/08/05 04:44:21;;;;;;;6.97;2.42;;;22.20;86.40;;;;;;5111849;28;20150;-64
2022/08/05 04:46:46;;;;;;;5.68;2.40;;;22.20;86.40;;;;;;5099104;28;20100;-64
2022/08/05 04:49:12;;;;;;;4.68;2.53;;;22.20;86.50;;;;;;5106184;28;20031;-64
2022/08/05 04:51:38;;;;;;;4.70;2.67;;;22.20;86.60;;;;;;5092950;28;20028;-64
2022/08/05 04:54:04;;;;;;;5.78;2.63;;;22.20;86.70;;;;;;5111705;28;20036;-65
2022/08/05 04:56:29;;;;;;;5.10;2.75;;;22.20;86.50;;;;;;5112125;28;20072;-64
2022/08/05 04:58:55;;;;;;;6.05;3.10;;;22.10;86.40;;;;;;5094291;28;20055;-64
2022/08/05 05:01:21;;;;;;;4.28;2.33;;;22.10;86.70;;;;;;5092704;28;20024;-64
2022/08/05 05:03:46;;;;;;;8.55;2.70;;;22.10;86.60;;;;;;5093088;28;20040;-64
2022/08/05 05:06:12;;;;;;;7.75;3.20;;;22.10;86.60;;;;;;5105806;28;20106;-64
2022/08/05 05:08:39;;;;;;;6.97;2.67;;;22.10;86.80;;;;;;5092233;28;20127;-64
2022/08/05 05:11:05;;;;;;;5.40;2.45;;;22.10;86.70;;;;;;5105624;28;20036;-64
2022/08/05 05:13:31;;;;;;;5.07;2.50;;;22.00;86.80;;;;;;5098119;28;20118;-64
2022/08/05 05:15:57;;;;;;;4.60;2.80;;;22.00;86.90;;;;;;5098697;28;20123;-64
2022/08/05 05:18:23;;;;;;;5.43;2.60;;;22.10;87.10;;;;;;5111822;28;20107;-64
2022/08/05 05:20:49;;;;;;;9.55;3.05;;;22.00;87.30;;;;;;5112390;28;20451;-64
2022/08/05 05:23:15;;;;;;;4.18;2.72;;;22.00;87.50;;;;;;5104752;28;20028;-64
2022/08/05 05:25:41;;;;;;;5.63;2.75;;;22.00;87.70;;;;;;5092268;28;20032;-64
2022/08/05 05:28:08;;;;;;;9.43;2.63;;;22.00;87.60;;;;;;5099326;28;20020;-64
2022/08/05 05:30:34;;;;;;;6.28;3.30;;;22.00;87.50;;;;;;5110555;28;20151;-64
2022/08/05 05:33:02;;;;;;;6.03;2.83;;;22.00;87.60;;;;;;5092412;28;20027;-64
2022/08/05 05:35:29;;;;;;;5.40;3.10;;;22.00;87.80;;;;;;5092855;28;20083;-64
2022/08/05 05:38:01;;;;;;;5.70;3.08;;;22.00;87.80;;;;;;5104092;28;20032;-64
2022/08/05 05:40:28;;;;;;;6.50;3.13;;;22.10;87.80;;;;;;5093812;28;20043;-64
2022/08/05 05:42:54;;;;;;;7.93;3.17;;;22.00;87.50;;;;;;5102984;28;20487;-64
2022/08/05 05:45:20;;;;;;;5.90;3.10;;;22.10;87.70;;;;;;5106842;28;20078;-64
2022/08/05 05:47:46;;;;;;;5.95;2.97;;;22.00;87.60;;;;;;5103347;28;20028;-64
2022/08/05 05:50:14;;;;;;;5.97;3.00;;;22.00;87.70;;;;;;5106845;28;20028;-64
2022/08/05 05:52:40;;;;;;;5.75;2.97;;;22.00;87.80;;;;;;5102760;28;20391;-64
2022/08/05 05:55:08;;;;;;;9.77;3.13;;;22.00;87.70;;;;;;5094061;28;20422;-64
2022/08/05 05:57:35;;;;;;;3.65;2.70;;;22.00;87.70;;;;;;5101983;28;20042;-64
2022/08/05 06:00:03;;;;;;;5.93;2.95;;;21.90;87.60;;;;;;5093116;28;20034;-64
2022/08/05 06:02:38;;;;;;;9.07;2.90;;;22.00;87.70;;;;;;5092068;28;20169;-64
2022/08/05 06:05:06;;;;;;;3.72;2.97;;;21.90;87.80;;;;;;5091607;28;20032;-64
2022/08/05 06:07:31;;;;;;;3.75;2.90;;;21.90;88.20;;;;;;5092888;28;20486;-64
2022/08/05 06:09:57;;;;;;;5.38;3.10;;;21.90;88.30;;;;;;5096682;28;20377;-63
2022/08/05 06:12:23;;;;;;;6.13;2.92;;;22.00;88.40;;;;;;5100171;28;20024;-64
2022/08/05 06:14:48;;;;;;;7.45;3.15;;;21.90;88.40;;;;;;5092053;28;20105;-65
2022/08/05 06:17:16;;;;;;;3.88;3.05;;;21.90;88.20;;;;;;5092460;28;20422;-64
2022/08/05 06:19:42;;;;;;;6.22;3.10;;;22.00;88.40;;;;;;5091432;28;20084;-64
2022/08/05 06:22:08;;;;;;;6.60;3.30;;;21.90;88.40;;;;;;5103385;28;20356;-64
2022/08/05 06:24:40;;;;;;;5.60;3.38;;;22.00;88.10;;;;;;5096838;28;20020;-64
2022/08/05 06:27:06;;;;;;;5.82;2.85;;;21.90;88.10;;;;;;5111460;28;20031;-64
2022/08/05 06:29:31;;;;;;;8.43;3.53;;;21.90;87.40;;;;;;5111044;28;20042;-64
2022/08/05 06:31:57;;;;;;;4.57;2.50;;;21.90;87.40;;;;;;5112239;28;20044;-64
2022/08/05 06:34:23;;;;;;;5.90;2.55;;;21.90;87.60;;;;;;5101247;28;20035;-64
2022/08/05 06:36:48;;;;;;;5.22;2.53;;;21.90;87.70;;;;;;5115906;28;20394;-63
2022/08/05 06:39:14;;;;;;;2.70;1.98;;;22.00;87.50;;;;;;5096095;28;20361;-64
2022/08/05 06:41:40;;;;;;;4.85;1.35;;;22.00;87.40;;;;;;5106809;28;20518;-63
2022/08/05 06:44:05;;;;;;;2.95;1.30;;;22.10;87.00;;;;;;5103296;28;20024;-64
2022/08/05 06:46:31;;;;;;;3.83;1.35;;;22.10;86.90;;;;;;5100817;28;20055;-65
2022/08/05 06:48:58;;;;;;;3.72;1.40;;;22.10;86.50;;;;;;5095080;28;20027;-65
2022/08/05 06:51:23;;;;;;;2.72;0.95;;;22.20;86.30;;;;;;5108365;28;20080;-64
2022/08/05 06:53:49;;;;;;;4.20;1.33;;;22.20;86.30;;;;;;5109683;27;20118;-64
2022/08/05 06:56:15;;;;;;;3.70;1.30;;;22.20;86.30;;;;;;5110982;28;20019;-63
2022/08/05 06:58:41;;;;;;;5.18;1.30;;;22.30;86.10;;;;;;5112656;28;20031;-63
2022/08/05 07:01:06;;;;;;;7.47;1.40;;;22.20;86.10;;;;;;5112649;28;20034;-63
2022/08/05 07:03:33;;;;;;;0.98;0.77;;;22.30;86.00;;;;;;5109155;28;20023;-64
2022/08/05 07:06:02;;;;;;;2.78;1.00;;;22.30;85.40;;;;;;5111375;28;20157;-64
2022/08/05 07:08:28;;;;;;;6.18;1.38;;;22.40;85.00;;;;;;5106535;28;20391;-64
2022/08/05 07:10:54;;;;;;;7.90;1.05;;;22.40;84.90;;;;;;5111723;28;20023;-63
2022/08/05 07:18:51;;;;;;;3.80;1.20;;;22.50;84.20;;;;;;5110752;28;20019;-63
2022/08/05 07:21:17;;;;;;;4.53;1.15;;;22.50;83.50;;;;;;5108383;28;20035;-63
2022/08/05 07:23:43;;;;;;;4.05;1.02;;;22.50;83.60;;;;;;5109821;28;20047;-63
2022/08/05 07:26:09;;;;;;;3.78;0.80;;;22.60;83.30;;;;;;5108177;27;20563;-64
2022/08/05 07:28:34;;;;;;;4.80;0.70;;;22.60;83.00;;;;;;5109896;28;20505;-64
2022/08/05 07:31:00;;;;;;;4.88;0.90;;;22.60;81.60;;;;;;5108900;28;20418;-64
2022/08/05 07:33:25;;;;;;;1.50;0.98;;;22.50;81.40;;;;;;5109534;28;20390;-64
2022/08/05 07:35:51;;;;;;;1.33;0.88;;;22.60;81.50;;;;;;5106527;28;20034;-64
2022/08/05 07:38:20;;;;;;;2.60;0.70;;;22.60;81.70;;;;;;5110484;28;20510;-64
2022/08/05 07:40:46;;;;;;;3.35;1.20;;;22.60;81.60;;;;;;5108085;28;20035;-64
2022/08/05 07:43:15;;;;;;;3.88;1.50;;;22.70;81.90;;;;;;5106345;28;20016;-63
2022/08/05 07:45:44;;;;;;;1.25;0.80;;;22.70;81.90;;;;;;5104981;28;20051;-63
2022/08/05 07:48:10;;;;;;;8.70;1.08;;;22.80;81.50;;;;;;5109722;28;20039;-63
2022/08/05 07:50:36;;;;;;;2.47;0.90;;;22.80;80.80;;;;;;5108675;28;20042;-64
2022/08/05 07:53:02;;;;;;;6.10;1.17;;;22.80;80.50;;;;;;5109901;28;20455;-65
2022/08/05 07:55:30;;;;;;;5.03;1.23;;;22.80;80.80;;;;;;5105531;28;20610;-62
2022/08/05 07:57:56;;;;;;;3.45;1.00;;;22.80;80.40;;;;;;5106861;28;20360;-62
2022/08/05 08:00:22;;;;;;;2.60;0.80;;;22.80;80.20;;;;;;5107729;28;20151;-62
2022/08/05 08:02:48;;;;;;;3.40;0.77;;;22.80;80.10;;;;;;5108147;28;20077;-62
2022/08/05 08:05:14;;;;;;;3.05;0.75;;;22.80;80.00;;;;;;5105219;28;20028;-62
2022/08/05 08:07:40;;;;;;;3.55;0.85;;;22.80;80.10;;;;;;5106612;28;20031;-63
2022/08/05 08:10:06;;;;;;;1.95;0.70;;;22.80;80.00;;;;;;5107724;27;20040;-67
2022/08/05 08:12:32;;;;;;;0.98;0.55;;;22.90;79.90;;;;;;5105982;28;20028;-63
2022/08/05 08:14:58;;;;;;;2.38;0.80;;;22.90;79.80;;;;;;5105925;28;20097;-63
2022/08/05 08:17:24;;;;;;;4.38;0.95;;;22.90;79.80;;;;;;5104351;28;20416;-63
2022/08/05 08:19:49;;;;;;;3.92;0.90;;;23.00;79.80;;;;;;5103445;28;20458;-62
2022/08/05 08:22:15;;;;;;;0.95;0.70;;;23.00;79.70;;;;;;5105028;28;20024;-63
2022/08/05 08:24:41;;;;;;;0.90;0.88;;;23.00;79.10;;;;;;5101133;28;20027;-64
2022/08/05 08:27:06;;;;;;;2.20;1.27;;;23.00;79.00;;;;;;5104509;28;20089;-63
2022/08/05 08:29:32;;;;;;;3.10;0.70;;;22.90;79.30;;;;;;5103405;28;20387;-63
2022/08/05 08:31:58;;;;;;;1.85;0.63;;;22.90;79.10;;;;;;5102588;28;20126;-63
2022/08/05 08:34:27;;;;;;;1.65;0.77;;;22.90;79.00;;;;;;5102928;28;20036;-63
2022/08/05 08:36:54;;;;;;;2.80;0.90;;;22.90;79.00;;;;;;5103042;28;20471;-63
2022/08/05 08:39:22;;;;;;;2.63;0.80;;;22.80;79.10;;;;;;5102349;28;20219;-64
2022/08/05 08:41:48;;;;;;;1.70;0.57;;;22.80;79.20;;;;;;5105844;28;20038;-63
2022/08/05 08:44:17;;;;;;;0.40;0.40;;;22.80;79.10;;;;;;5105730;28;20045;-64
2022/08/05 08:46:43;;;;;;;5.90;1.15;;;22.80;79.60;;;;;;5105608;28;20123;-64
2022/08/05 08:49:13;;;;;;;3.13;1.00;;;22.70;80.40;;;;;;5111952;28;20496;-63
2022/08/05 08:51:40;;;;;;;4.32;0.70;;;22.70;81.40;;;;;;5107122;28;20422;-63
2022/08/05 08:54:07;;;;;;;1.95;1.00;;;22.80;80.70;;;;;;5102204;28;20040;-63
2022/08/05 08:56:33;;;;;;;3.17;0.90;;;22.80;80.50;;;;;;5105391;28;20065;-64
2022/08/05 08:59:00;;;;;;;2.90;0.93;;;22.90;80.70;;;;;;5105448;28;20115;-63
2022/08/05 09:01:26;;;;;;;4.10;1.92;;;23.00;80.80;;;;;;5105258;28;20028;-64
2022/08/05 09:03:53;;;;;;;6.70;1.13;;;23.00;80.30;;;;;;5107539;28;20402;-64
2022/08/05 09:06:19;;;;;;;0.80;0.70;;;23.10;80.00;;;;;;5105288;28;20028;-63
2022/08/05 09:08:45;;;;;;;2.55;1.00;;;23.10;79.90;;;;;;5108154;28;20060;-63
2022/08/05 09:11:12;;;;;;;4.35;0.98;;;23.10;80.00;;;;;;5106438;27;20477;-64
2022/08/05 09:13:38;;;;;;;2.78;1.00;;;23.10;79.80;;;;;;5105466;28;20059;-64
2022/08/05 09:16:07;;;;;;;7.30;1.08;;;23.20;79.60;;;;;;5107308;28;20111;-64
2022/08/05 09:18:35;;;;;;;4.07;0.80;;;23.20;78.80;;;;;;5107844;28;20467;-64
2022/08/05 09:21:01;;;;;;;2.30;0.82;;;23.20;78.80;;;;;;5105935;28;20028;-64
2022/08/05 09:23:27;;;;;;;4.43;0.98;;;23.20;78.70;;;;;;5106500;28;20394;-64
2022/08/05 09:26:10;;;;;;;5.22;0.98;;;23.30;79.10;;;;;;5108398;28;20027;-64
2022/08/05 09:28:37;;;;;;;4.13;0.88;;;23.30;79.30;;;;;;5106639;28;20042;-64
2022/08/05 09:31:06;;;;;;;1.90;0.65;;;23.30;78.80;;;;;;5104698;28;20070;-64
2022/08/05 09:33:49;;;;;;;2.65;1.00;;;23.30;78.60;;;;;;5109894;28;20032;-64
2022/08/05 09:36:16;;;;;;;4.57;0.80;;;23.30;78.30;;;;;;5107432;28;20516;-64
2022/08/05 09:39:06;;;;;;;1.17;0.65;;;23.30;78.00;;;;;;5107264;28;20031;-64
2022/08/05 09:41:32;;;;;;;0.40;0.40;;;23.30;78.20;;;;;;5109653;28;20040;-64
2022/08/05 09:43:58;;;;;;;2.33;0.77;;;23.30;78.20;;;;;;5099898;28;20028;-64
2022/08/05 09:46:32;;;;;;;3.53;0.60;;;23.30;77.70;;;;;;5107874;28;20031;-64
2022/08/05 09:49:00;;;;;;;2.20;0.50;;;23.30;77.60;;;;;;5106784;28;20023;-64
2022/08/05 09:51:40;;;;;;;3.25;0.70;;;23.20;77.30;;;;;;5108545;28;20493;-64
2022/08/05 09:54:07;;;;;;;2.03;0.90;;;23.30;77.00;;;;;;5108187;28;20050;-64
2022/08/05 09:56:36;;;;;;;1.48;0.65;;;23.30;77.00;;;;;;5106637;28;20023;-65
2022/08/05 09:59:08;;;;;;;2.63;0.60;;;23.30;76.60;;;;;;5107705;28;20042;-64
2022/08/05 10:01:35;;;;;;;1.55;0.63;;;23.40;76.70;;;;;;5106855;28;20028;-65
2022/08/05 10:04:07;;;;;;;2.15;0.80;;;23.40;75.30;;;;;;5107137;28;20338;-64
2022/08/05 10:06:33;;;;;;;6.13;0.70;;;23.50;75.70;;;;;;5098507;28;20107;-64
2022/08/05 10:09:16;;;;;;;0.45;0.40;;;23.50;75.20;;;;;;5107378;27;20042;-64
2022/08/05 10:11:43;;;;;;;6.50;0.90;;;23.50;75.00;;;;;;5108691;28;20135;-64
2022/08/05 10:14:26;;;;;;;0.43;0.43;;;23.40;74.20;;;;;;5110682;28;20304;-64
2022/08/05 10:16:55;;;;;;;;;;;23.40;74.20;;;;;;5105552;28;20043;-64
2022/08/05 10:19:25;;;;;;;2.15;0.43;;;23.50;75.30;;;;;;5095484;28;20057;-64
2022/08/05 10:21:51;;;;;;;1.50;0.50;;;23.50;74.10;;;;;;5108751;28;20041;-64
2022/08/05 10:24:18;;;;;;;2.88;0.50;;;23.50;72.20;;;;;;5099262;28;20028;-64
2022/08/05 10:26:46;;;;;;;1.92;0.43;;;23.50;72.80;;;;;;5104298;28;20180;-63
2022/08/05 10:29:15;;;;;;;4.18;0.88;;;23.50;72.30;;;;;;5102120;28;20020;-64
2022/08/05 10:31:41;;;;;;;0.57;0.57;;;23.40;71.70;;;;;;5105577;27;20499;-64
2022/08/05 10:34:08;;;;;;;0.65;0.63;;;23.40;71.60;;;;;;5108116;28;20062;-64
2022/08/05 10:36:39;;;;;;;2.83;0.45;;;23.50;70.30;;;;;;5104979;28;20074;-64
2022/08/05 10:39:10;;;;;;;2.88;1.10;;;23.40;70.10;;;;;;5113973;28;20024;-63
2022/08/05 10:41:45;;;;;;;3.75;1.20;;;23.40;71.00;;;;;;5115733;28;20048;-64
2022/08/05 10:44:14;;;;;;;1.35;0.40;;;23.40;70.60;;;;;;5095622;28;20028;-64
2022/08/05 10:46:44;;;;;;;4.93;0.70;;;23.40;68.50;;;;;;5107909;28;20035;-64
2022/08/05 10:49:10;;;;;;;1.50;0.60;;;23.30;69.00;;;;;;5109344;28;20016;-64
2022/08/05 10:51:46;;;;;;;4.88;1.35;;;23.30;68.20;;;;;;5111771;28;20378;-63
2022/08/05 10:54:12;;;;;;;4.45;0.80;;;23.30;69.30;;;;;;5107186;28;20032;-64
2022/08/05 10:56:49;;;;;;;4.35;0.50;;;23.40;68.50;;;;;;5111644;28;20019;-64
2022/08/05 10:59:17;;;;;;;4.18;0.60;;;23.40;70.10;;;;;;5108888;28;20066;-64
2022/08/05 11:01:44;;;;;;;2.50;0.50;;;23.40;68.80;;;;;;5110013;28;20430;-63
2022/08/05 11:04:16;;;;;;;4.55;1.67;;;23.40;68.30;;;;;;5111424;28;20031;-63
2022/08/05 11:06:57;;;;;;;6.88;1.08;;;23.40;67.60;;;;;;5109173;28;20040;-63
2022/08/05 11:09:25;;;;;;;0.43;0.35;;;23.40;68.50;;;;;;5110486;28;20035;-64
2022/08/05 11:11:53;;;;;;;1.77;0.55;;;23.40;69.20;;;;;;5107028;28;20045;-64
2022/08/05 11:14:24;;;;;;;7.10;1.08;;;23.50;67.00;;;;;;5109826;28;20039;-64
2022/08/05 11:17:24;;;;;;;3.85;0.73;;;23.40;68.10;;;;;;5110595;28;20027;-64
2022/08/05 11:19:52;;;;;;;1.52;0.43;;;23.50;67.80;;;;;;5105780;28;20028;-64
2022/08/05 11:22:46;;;;;;;1.95;0.50;;;23.50;67.10;;;;;;5109512;28;20031;-67
2022/08/05 11:25:31;;;;;;;3.90;1.10;;;23.50;67.00;;;;;;5102414;28;20543;-64
2022/08/05 11:28:16;;;;;;;10.55;0.95;;;23.50;66.00;;;;;;5102909;28;20032;-64
2022/08/05 11:30:57;;;;;;;2.25;0.60;;;23.50;65.40;;;;;;5096705;28;20120;-64
2022/08/05 11:33:37;;;;;;;4.00;0.85;;;23.50;64.10;;;;;;5098805;28;20028;-64
2022/08/05 11:36:05;;;;;;;5.18;0.70;;;23.50;65.70;;;;;;5108551;28;20375;-64
2022/08/05 11:38:43;;;;;;;17.33;1.73;;;23.50;65.90;;;;;;5109124;28;20102;-64
2022/08/05 11:41:30;;;;;;;2.05;0.75;;;23.50;67.20;;;;;;5108162;28;20030;-64
2022/08/05 11:44:11;;;;;;;9.82;1.30;;;23.60;67.10;;;;;;5108886;28;20103;-63
2022/08/05 11:46:39;;;;;;;2.83;0.63;;;23.60;67.50;;;;;;5110088;28;20519;-64
2022/08/05 11:49:07;;;;;;;12.82;1.60;;;23.70;68.10;;;;;;5106191;28;20020;-64
2022/08/05 11:51:34;;;;;;;7.30;0.70;;;23.70;68.20;;;;;;5111578;28;20474;-64
2022/08/05 11:54:00;;;;;;;7.90;0.73;;;23.70;67.00;;;;;;5108241;28;20028;-64
2022/08/05 11:56:51;;;;;;;4.40;0.43;;;23.80;68.20;;;;;;5108304;28;20421;-64
2022/08/05 11:59:26;;;;;;;6.38;0.90;;;23.80;68.60;;;;;;5108275;28;20047;-64
2022/08/05 12:02:07;;;;;;;7.05;0.70;;;23.80;67.80;;;;;;5103282;28;20107;-64
2022/08/05 12:04:47;;;;;;;3.53;0.63;;;23.80;68.20;;;;;;5105955;28;20036;-64
2022/08/05 12:07:16;;;;;;;7.32;0.80;;;23.90;68.30;;;;;;5106401;28;20035;-64
2022/08/05 12:09:53;;;;;;;3.00;0.52;;;23.80;67.20;;;;;;5104833;28;20059;-64
2022/08/05 12:12:22;;;;;;;4.60;0.50;;;23.90;67.20;;;;;;5106011;28;20059;-64
2022/08/05 12:14:48;;;;;;;2.53;0.63;;;23.90;66.10;;;;;;5105217;28;20100;-64
2022/08/05 12:17:14;;;;;;;1.33;0.60;;;23.90;67.80;;;;;;5105651;28;20031;-64
2022/08/05 12:19:41;;;;;;;1.13;0.40;;;23.90;68.10;;;;;;5105237;28;20036;-64
2022/08/05 12:22:07;;;;;;;4.80;0.75;;;23.90;68.00;;;;;;5105272;28;20028;-64
2022/08/05 12:24:33;;;;;;;2.03;0.40;;;24.00;68.30;;;;;;5104693;28;20035;-64
2022/08/05 12:27:00;;;;;;;7.63;0.90;;;24.00;68.60;;;;;;5107142;28;20038;-63
2022/08/05 12:29:27;;;;;;;2.33;0.88;;;24.00;66.70;;;;;;5103686;28;20066;-63
2022/08/05 12:31:59;;;;;;;5.97;0.90;;;24.00;67.60;;;;;;5104452;28;20063;-64
2022/08/05 12:34:33;;;;;;;5.30;0.52;;;24.00;65.80;;;;;;5105197;28;20074;-64
2022/08/05 12:37:06;;;;;;;3.72;0.40;;;24.00;66.90;;;;;;5107006;28;20020;-63
2022/08/05 12:39:32;;;;;;;0.75;0.50;;;24.10;66.50;;;;;;5105297;28;20039;-64
2022/08/05 12:41:58;;;;;;;3.45;0.82;;;24.10;66.50;;;;;;5107395;27;20024;-64
2022/08/05 12:44:25;;;;;;;7.03;0.73;;;24.10;66.90;;;;;;5100264;28;20178;-65
2022/08/05 12:46:53;;;;;;;2.08;0.60;;;24.10;67.00;;;;;;5107855;28;20498;-64
2022/08/05 12:49:19;;;;;;;7.50;0.73;;;24.20;67.00;;;;;;5107012;28;20483;-64
2022/08/05 12:51:47;;;;;;;1.60;0.47;;;24.20;66.30;;;;;;5107267;28;20027;-64
2022/08/05 12:54:31;;;;;;;1.48;0.47;;;24.20;67.70;;;;;;5110090;28;20046;-64
2022/08/05 12:57:07;;;;;;;2.47;0.63;;;24.30;68.10;;;;;;5109074;28;20390;-64
2022/08/05 12:59:53;;;;;;;4.13;0.73;;;24.30;66.80;;;;;;5107287;28;20570;-67
2022/08/05 13:02:26;;;;;;;3.90;0.70;;;24.30;67.10;;;;;;5108181;28;20044;-64